createdAt,value
2017-07-09T00:01:01.052Z,77.88
2017-07-09T00:03:33.528Z,77.83
2017-07-09T00:06:05.992Z,77.89
2017-07-09T00:08:38.388Z,78.03
2017-07-09T00:11:10.800Z,78.07
2017-07-09T00:13:44.441Z,78.61
2017-07-09T00:16:17.745Z,78.62
2017-07-09T00:18:50.199Z,78.74
2017-07-09T00:21:23.605Z,78.98
2017-07-09T00:23:56.005Z,79.29
2017-07-09T00:26:28.465Z,79.74
2017-07-09T00:31:41.476Z,79.41
2017-07-09T00:34:13.873Z,79.46
2017-07-09T00:36:46.247Z,79.37
2017-07-09T00:39:18.730Z,79.63
2017-07-09T00:41:51.157Z,79.74
2017-07-09T00:44:23.781Z,79.78
2017-07-09T00:47:03.077Z,80.47
2017-07-09T00:49:35.474Z,80.90
2017-07-09T00:52:07.849Z,81.53
2017-07-09T00:54:40.303Z,81.20
2017-07-09T00:57:12.757Z,80.41
2017-07-09T00:59:44.997Z,80.52
2017-07-09T01:02:17.417Z,80.46
2017-07-09T01:04:49.785Z,80.37
2017-07-09T01:07:22.197Z,80.37
2017-07-09T01:09:54.579Z,80.60
2017-07-09T01:12:26.905Z,81.32
2017-07-09T01:14:59.524Z,81.40
2017-07-09T01:17:31.600Z,81.67
2017-07-09T01:20:03.996Z,81.24
2017-07-09T01:22:37.306Z,81.97
2017-07-09T01:25:09.939Z,81.93
2017-07-09T01:27:41.932Z,81.66
2017-07-09T01:30:14.275Z,82.15
2017-07-09T01:32:47.062Z,83.66
2017-07-09T01:35:19.097Z,83.26
2017-07-09T01:37:51.427Z,83.52
2017-07-09T01:40:23.756Z,83.90
2017-07-09T01:42:56.173Z,83.98
2017-07-09T01:45:28.495Z,83.22
2017-07-09T01:48:00.992Z,83.38
2017-07-09T01:50:33.244Z,82.83
2017-07-09T01:53:05.741Z,83.13
2017-07-09T01:55:38.119Z,83.11
2017-07-09T01:58:10.439Z,83.39
2017-07-09T02:00:42.843Z,82.95
2017-07-09T02:03:15.185Z,83.09
2017-07-09T02:05:47.917Z,82.48
2017-07-09T02:08:19.910Z,82.44
2017-07-09T02:10:52.381Z,82.46
2017-07-09T02:13:24.684Z,82.32
2017-07-09T02:15:57.153Z,82.14
2017-07-09T02:18:29.489Z,82.03
2017-07-09T02:21:01.911Z,81.01
2017-07-09T02:23:34.333Z,80.68
2017-07-09T02:26:06.777Z,80.76
2017-07-09T02:28:40.145Z,80.63
2017-07-09T02:31:12.565Z,80.40
2017-07-09T02:33:44.860Z,80.04
2017-07-09T02:36:17.269Z,80.68
2017-07-09T02:38:49.628Z,80.62
2017-07-09T02:41:21.997Z,80.89
2017-07-09T02:43:55.226Z,80.37
2017-07-09T02:46:27.941Z,80.40
2017-07-09T02:49:00.224Z,80.06
2017-07-09T02:51:32.723Z,80.19
2017-07-09T02:54:05.288Z,80.34
2017-07-09T02:56:37.309Z,81.25
2017-07-09T02:59:09.824Z,81.52
2017-07-09T03:01:42.188Z,81.47
2017-07-09T03:04:14.575Z,81.71
2017-07-09T03:06:46.930Z,81.55
2017-07-09T03:09:19.360Z,81.85
2017-07-09T03:11:51.698Z,81.73
2017-07-09T03:14:24.088Z,82.07
2017-07-09T03:16:56.423Z,81.96
2017-07-09T03:19:29.898Z,81.55
2017-07-09T03:22:02.223Z,81.38
2017-07-09T03:24:34.622Z,81.30
2017-07-09T03:27:07.040Z,81.27
2017-07-09T03:29:40.285Z,81.65
2017-07-09T03:32:12.790Z,81.91
2017-07-09T03:34:45.280Z,81.59
2017-07-09T03:37:17.744Z,81.31
2017-07-09T03:39:50.158Z,81.51
2017-07-09T03:42:22.628Z,81.75
2017-07-09T03:44:55.797Z,81.51
2017-07-09T03:47:28.502Z,81.49
2017-07-09T03:50:00.888Z,81.23
2017-07-09T03:52:33.233Z,80.94
2017-07-09T03:55:05.677Z,81.19
2017-07-09T03:57:37.971Z,81.05
2017-07-09T04:00:11.444Z,81.17
2017-07-09T04:02:43.766Z,81.08
2017-07-09T04:05:16.178Z,81.34
2017-07-09T04:07:48.497Z,81.72
2017-07-09T04:10:20.786Z,82.17
2017-07-09T04:12:53.059Z,81.96
2017-07-09T04:15:25.444Z,82.06
2017-07-09T04:17:57.780Z,81.77
2017-07-09T04:20:30.142Z,81.92
2017-07-09T04:23:02.428Z,81.98
2017-07-09T04:25:34.942Z,81.97
2017-07-09T04:28:07.396Z,81.27
2017-07-09T04:30:39.654Z,81.30
2017-07-09T04:33:12.031Z,81.48
2017-07-09T04:35:44.525Z,81.51
2017-07-09T04:38:16.848Z,81.78
2017-07-09T04:40:49.169Z,81.67
2017-07-09T04:43:21.929Z,81.17
2017-07-09T04:45:54.015Z,80.85
2017-07-09T04:48:26.274Z,80.96
2017-07-09T04:50:58.843Z,81.49
2017-07-09T04:53:30.876Z,81.52
2017-07-09T04:56:03.289Z,80.44
2017-07-09T04:58:35.655Z,80.23
2017-07-09T05:01:08.133Z,80.84
2017-07-09T05:03:40.565Z,80.88
2017-07-09T05:06:12.932Z,80.68
2017-07-09T05:08:45.353Z,80.84
2017-07-09T05:11:17.728Z,80.28
2017-07-09T05:13:50.082Z,80.57
2017-07-09T05:16:22.351Z,80.63
2017-07-09T05:18:54.741Z,81.13
2017-07-09T05:21:27.331Z,81.46
2017-07-09T05:23:59.593Z,81.17
2017-07-09T05:26:32.092Z,81.48
2017-07-09T05:29:04.440Z,81.52
2017-07-09T05:31:36.764Z,80.18
2017-07-09T05:34:09.111Z,78.32
2017-07-09T05:36:41.514Z,77.55
2017-07-09T05:39:13.779Z,75.78
2017-07-09T05:41:46.516Z,70.73
2017-07-09T05:44:18.813Z,67.82
2017-07-09T05:46:51.177Z,66.79
2017-07-09T05:49:24.427Z,64.55
2017-07-09T05:51:57.069Z,63.11
2017-07-09T05:54:29.439Z,63.22
2017-07-09T05:57:01.859Z,61.97
2017-07-09T05:59:34.320Z,63.19
2017-07-09T06:02:06.693Z,64.19
2017-07-09T06:04:39.140Z,65.99
2017-07-09T06:07:11.391Z,66.04
2017-07-09T06:09:43.725Z,64.80
2017-07-09T06:12:16.195Z,62.81
2017-07-09T06:14:48.550Z,60.42
2017-07-09T06:17:20.844Z,58.44
2017-07-09T06:19:53.164Z,57.43
2017-07-09T06:22:25.924Z,59.32
2017-07-09T06:24:58.010Z,61.22
2017-07-09T06:27:30.368Z,62.81
2017-07-09T06:30:02.828Z,63.18
2017-07-09T06:32:35.283Z,64.10
2017-07-09T06:35:07.996Z,64.97
2017-07-09T06:37:41.274Z,65.16
2017-07-09T06:40:13.695Z,64.32
2017-07-09T06:42:46.181Z,62.99
2017-07-09T06:45:18.493Z,64.30
2017-07-09T06:47:50.977Z,61.93
2017-07-09T06:50:23.364Z,60.41
2017-07-09T06:52:55.767Z,58.31
2017-07-09T06:55:28.198Z,55.84
2017-07-09T06:58:00.536Z,52.25
2017-07-09T07:00:32.956Z,52.36
2017-07-09T07:03:05.333Z,51.67
2017-07-09T07:05:37.699Z,50.22
2017-07-09T07:08:10.216Z,50.04
2017-07-09T07:10:43.450Z,48.07
2017-07-09T07:13:16.093Z,47.07
2017-07-09T07:15:48.424Z,46.70
2017-07-09T07:18:20.732Z,48.21
2017-07-09T07:20:53.156Z,51.04
2017-07-09T07:23:25.771Z,52.18
2017-07-09T07:25:58.221Z,51.21
2017-07-09T07:28:30.805Z,51.19
2017-07-09T07:31:03.398Z,50.08
2017-07-09T07:33:35.382Z,52.23
2017-07-09T07:36:07.697Z,53.22
2017-07-09T07:38:40.139Z,54.15
2017-07-09T07:41:12.733Z,54.42
2017-07-09T07:43:44.993Z,54.62
2017-07-09T07:46:17.332Z,53.65
2017-07-09T07:48:49.832Z,53.95
2017-07-09T07:51:22.147Z,53.72
2017-07-09T07:53:54.680Z,53.50
2017-07-09T07:56:27.965Z,53.38
2017-07-09T07:59:00.499Z,53.10
2017-07-09T08:01:32.892Z,53.10
2017-07-09T08:04:05.213Z,53.54
2017-07-09T08:06:37.520Z,51.18
2017-07-09T08:09:10.008Z,48.19
2017-07-09T08:11:42.521Z,44.62
2017-07-09T08:14:14.970Z,41.26
2017-07-09T08:16:47.432Z,38.16
2017-07-09T08:19:19.876Z,37.79
2017-07-09T08:21:52.181Z,35.84
2017-07-09T08:24:24.964Z,35.07
2017-07-09T08:26:58.008Z,33.64
2017-07-09T08:29:30.549Z,31.98
2017-07-09T08:32:03.005Z,34.13
2017-07-09T08:34:35.400Z,34.91
2017-07-09T08:37:08.377Z,33.89
2017-07-09T08:39:40.319Z,33.26
2017-07-09T08:42:12.733Z,34.05
2017-07-09T08:44:45.477Z,34.58
2017-07-09T08:47:17.762Z,33.99
2017-07-09T08:49:50.100Z,32.90
2017-07-09T08:52:22.814Z,32.94
2017-07-09T08:54:54.909Z,32.70
2017-07-09T08:57:27.353Z,32.40
2017-07-09T09:00:00.240Z,32.08
2017-07-09T09:02:32.213Z,32.54
2017-07-09T09:05:05.128Z,32.98
2017-07-09T09:07:37.112Z,32.42
2017-07-09T09:10:09.417Z,34.67
2017-07-09T09:12:41.804Z,36.64
2017-07-09T09:15:14.205Z,38.21
2017-07-09T09:17:46.668Z,38.63
2017-07-09T09:20:19.158Z,40.51
2017-07-09T09:22:52.022Z,39.18
2017-07-09T09:25:24.405Z,40.18
2017-07-09T09:27:56.789Z,41.03
2017-07-09T09:30:29.189Z,42.03
2017-07-09T09:33:01.549Z,40.87
2017-07-09T09:35:34.000Z,39.23
2017-07-09T09:38:07.255Z,38.87
2017-07-09T09:40:39.975Z,40.01
2017-07-09T09:43:12.351Z,41.13
2017-07-09T09:45:44.786Z,41.43
2017-07-09T09:48:17.193Z,41.70
2017-07-09T09:50:49.701Z,42.92
2017-07-09T09:53:22.153Z,43.99
2017-07-09T09:55:54.653Z,43.55
2017-07-09T09:58:27.001Z,42.60
2017-07-09T10:00:59.494Z,43.38
2017-07-09T10:03:31.949Z,43.17
2017-07-09T10:06:04.456Z,42.35
2017-07-09T10:08:36.744Z,42.00
2017-07-09T10:11:09.199Z,42.57
2017-07-09T10:13:41.810Z,41.05
2017-07-09T10:16:14.344Z,42.24
2017-07-09T10:18:46.588Z,42.17
2017-07-09T10:21:19.146Z,39.98
2017-07-09T10:23:51.531Z,38.00
2017-07-09T10:26:23.939Z,38.07
2017-07-09T10:28:56.699Z,37.99
2017-07-09T10:31:28.861Z,38.58
2017-07-09T10:34:01.378Z,38.13
2017-07-09T10:36:34.004Z,37.05
2017-07-09T10:39:06.113Z,35.96
2017-07-09T10:41:38.662Z,36.48
2017-07-09T10:44:10.838Z,37.68
2017-07-09T10:46:43.337Z,38.63
2017-07-09T10:49:15.784Z,40.44
2017-07-09T10:51:48.256Z,41.45
2017-07-09T10:54:20.732Z,40.44
2017-07-09T10:56:53.104Z,39.88
2017-07-09T10:59:25.484Z,40.16
2017-07-09T11:01:58.991Z,38.68
2017-07-09T11:04:31.364Z,38.79
2017-07-09T11:07:03.741Z,39.70
2017-07-09T11:09:36.221Z,40.13
2017-07-09T11:12:08.759Z,40.81
2017-07-09T11:14:41.116Z,41.46
2017-07-09T11:17:13.829Z,41.70
2017-07-09T11:19:46.090Z,43.15
2017-07-09T11:22:18.393Z,43.57
2017-07-09T11:24:50.853Z,43.58
2017-07-09T11:27:23.268Z,45.04
2017-07-09T11:29:55.614Z,45.76
2017-07-09T11:32:28.036Z,46.89
2017-07-09T11:35:00.721Z,47.07
2017-07-09T11:37:32.782Z,47.09
2017-07-09T11:40:05.199Z,46.92
2017-07-09T11:42:37.678Z,46.46
2017-07-09T11:45:10.038Z,46.43
2017-07-09T11:47:42.539Z,45.97
2017-07-09T11:50:15.837Z,45.15
2017-07-09T11:52:49.183Z,46.48
2017-07-09T11:55:21.678Z,46.44
2017-07-09T11:57:54.181Z,46.41
2017-07-09T12:00:26.522Z,44.09
2017-07-09T12:02:59.016Z,44.12
2017-07-09T12:05:32.404Z,42.68
2017-07-09T12:08:04.996Z,41.39
2017-07-09T12:10:38.441Z,39.90
2017-07-09T12:13:10.941Z,38.35
2017-07-09T12:15:43.322Z,37.92
2017-07-09T12:18:15.737Z,38.41
2017-07-09T12:20:48.262Z,38.48
2017-07-09T12:23:20.663Z,39.81
2017-07-09T12:25:53.440Z,38.92
2017-07-09T12:28:25.549Z,40.94
2017-07-09T12:30:58.054Z,40.17
2017-07-09T12:33:30.395Z,40.25
2017-07-09T12:36:02.781Z,40.57
2017-07-09T12:38:35.169Z,40.62
2017-07-09T12:41:07.464Z,41.67
2017-07-09T12:43:39.989Z,42.45
2017-07-09T12:46:12.372Z,42.43
2017-07-09T12:48:44.932Z,42.82
2017-07-09T12:51:17.386Z,42.52
2017-07-09T12:53:49.821Z,42.48
2017-07-09T12:56:22.154Z,42.61
2017-07-09T12:58:54.633Z,40.14
2017-07-09T13:01:26.999Z,40.16
2017-07-09T13:03:59.523Z,40.55
2017-07-09T13:06:32.474Z,41.03
2017-07-09T13:09:05.248Z,40.67
2017-07-09T13:11:37.577Z,40.80
2017-07-09T13:14:09.985Z,41.67
2017-07-09T13:16:42.566Z,41.38
2017-07-09T13:19:15.048Z,42.47
2017-07-09T13:21:47.835Z,42.25
2017-07-09T13:24:19.774Z,42.03
2017-07-09T13:26:52.127Z,40.81
2017-07-09T13:29:24.926Z,41.32
2017-07-09T13:31:57.541Z,40.72
2017-07-09T13:34:29.303Z,41.41
2017-07-09T13:37:01.649Z,41.30
2017-07-09T13:39:34.135Z,41.29
2017-07-09T13:42:06.597Z,41.44
2017-07-09T13:44:39.024Z,39.24
2017-07-09T13:47:11.356Z,38.90
2017-07-09T13:49:43.705Z,40.56
2017-07-09T13:52:16.080Z,40.02
2017-07-09T13:54:48.497Z,40.61
2017-07-09T13:57:20.797Z,39.91
2017-07-09T13:59:54.015Z,39.97
2017-07-09T14:02:26.749Z,38.61
2017-07-09T14:04:59.116Z,37.89
2017-07-09T14:07:32.391Z,38.83
2017-07-09T14:10:05.858Z,38.22
2017-07-09T14:12:38.259Z,37.32
2017-07-09T14:15:10.617Z,36.99
2017-07-09T14:17:43.017Z,37.96
2017-07-09T14:20:16.511Z,37.48
2017-07-09T14:22:48.865Z,37.91
2017-07-09T14:25:21.381Z,38.55
2017-07-09T14:27:53.758Z,38.96
2017-07-09T14:30:26.240Z,39.83
2017-07-09T14:32:58.677Z,40.86
2017-07-09T14:35:30.972Z,41.32
2017-07-09T14:38:04.280Z,41.10
2017-07-09T14:40:36.650Z,40.33
2017-07-09T14:43:24.172Z,40.78
2017-07-09T14:45:56.838Z,43.22
2017-07-09T14:48:29.275Z,41.59
2017-07-09T14:51:02.674Z,43.28
2017-07-09T14:53:35.031Z,42.25
2017-07-09T14:56:08.562Z,42.11
2017-07-09T14:58:40.857Z,44.03
2017-07-09T15:01:13.433Z,44.66
2017-07-09T15:03:45.800Z,44.45
2017-07-09T15:06:18.292Z,43.67
2017-07-09T15:08:50.649Z,41.96
2017-07-09T15:11:23.056Z,43.13
2017-07-09T15:13:55.418Z,42.88
2017-07-09T15:16:27.725Z,41.97
2017-07-09T15:18:59.968Z,43.59
2017-07-09T15:21:32.358Z,43.48
2017-07-09T15:24:04.758Z,43.58
2017-07-09T15:26:37.132Z,42.44
2017-07-09T15:29:09.481Z,43.70
2017-07-09T15:31:41.897Z,43.63
2017-07-09T15:34:14.302Z,44.05
2017-07-09T15:36:46.727Z,43.23
2017-07-09T15:39:19.180Z,43.67
2017-07-09T15:41:51.536Z,43.93
2017-07-09T15:44:23.950Z,43.58
2017-07-09T15:46:56.385Z,43.28
2017-07-09T15:49:28.648Z,43.89
2017-07-09T15:52:01.014Z,43.00
2017-07-09T15:54:33.347Z,43.40
2017-07-09T15:57:05.833Z,43.86
2017-07-09T15:59:38.403Z,44.51
2017-07-09T16:02:11.813Z,44.81
2017-07-09T16:04:44.169Z,45.14
2017-07-09T16:07:16.597Z,44.06
2017-07-09T16:09:48.848Z,43.72
2017-07-09T16:12:21.194Z,43.89
2017-07-09T16:14:53.668Z,43.86
2017-07-09T16:17:26.068Z,43.39
2017-07-09T16:19:58.552Z,43.52
2017-07-09T16:22:30.887Z,43.41
2017-07-09T16:25:03.337Z,43.77
2017-07-09T16:27:35.750Z,44.13
2017-07-09T16:30:08.000Z,43.71
2017-07-09T16:32:40.523Z,43.56
2017-07-09T16:35:12.970Z,43.09
2017-07-09T16:37:46.530Z,44.11
2017-07-09T16:40:18.953Z,42.90
2017-07-09T16:42:51.620Z,43.45
2017-07-09T16:45:23.602Z,43.92
2017-07-09T16:47:55.982Z,43.63
2017-07-09T16:50:28.452Z,43.95
2017-07-09T16:53:00.829Z,44.23
2017-07-09T16:55:33.216Z,44.96
2017-07-09T16:58:05.588Z,44.82
2017-07-09T17:00:38.094Z,45.73
2017-07-09T17:03:10.412Z,46.47
2017-07-09T17:05:43.886Z,45.76
2017-07-09T17:08:16.392Z,46.27
2017-07-09T17:10:48.737Z,47.60
2017-07-09T17:13:21.182Z,47.81
2017-07-09T17:15:53.595Z,47.86
2017-07-09T17:18:26.007Z,47.96
2017-07-09T17:20:58.302Z,48.37
2017-07-09T17:23:31.016Z,48.56
2017-07-09T17:26:03.186Z,48.59
2017-07-09T17:28:35.706Z,49.10
2017-07-09T17:31:08.143Z,48.59
2017-07-09T17:33:41.564Z,48.84
2017-07-09T17:36:13.957Z,48.49
2017-07-09T17:38:46.358Z,48.58
2017-07-09T17:41:18.776Z,48.22
2017-07-09T17:43:51.096Z,49.05
2017-07-09T17:46:23.620Z,49.02
2017-07-09T17:48:55.912Z,48.84
2017-07-09T17:51:28.570Z,49.51
2017-07-09T17:54:00.731Z,49.32
2017-07-09T17:56:33.430Z,49.68
2017-07-09T17:59:05.699Z,49.59
2017-07-09T18:01:37.779Z,49.87
2017-07-09T18:04:10.265Z,50.35
2017-07-09T18:06:42.592Z,50.83
2017-07-09T18:09:16.086Z,51.22
2017-07-09T18:11:56.435Z,51.05
2017-07-09T18:14:29.012Z,51.28
2017-07-09T18:17:01.400Z,51.58
2017-07-09T18:19:33.819Z,51.78
2017-07-09T18:22:06.299Z,51.46
2017-07-09T18:24:39.685Z,51.43
2017-07-09T18:27:12.111Z,52.05
2017-07-09T18:29:44.497Z,52.45
2017-07-09T18:32:16.857Z,53.10
2017-07-09T18:34:49.449Z,53.27
2017-07-09T18:37:21.665Z,53.58
2017-07-09T18:39:54.145Z,53.54
2017-07-09T18:42:26.273Z,53.64
2017-07-09T18:44:58.802Z,54.09
2017-07-09T18:47:31.289Z,54.38
2017-07-09T18:50:03.722Z,54.93
2017-07-09T18:52:35.900Z,55.58
2017-07-09T18:55:09.483Z,56.39
2017-07-09T18:57:41.694Z,56.75
2017-07-09T19:00:14.160Z,56.75
2017-07-09T19:02:47.752Z,56.97
2017-07-09T19:05:21.094Z,57.16
2017-07-09T19:07:53.681Z,57.77
2017-07-09T19:10:25.868Z,58.19
2017-07-09T19:12:58.358Z,58.77
2017-07-09T19:15:31.805Z,59.17
2017-07-09T19:18:04.185Z,59.30
2017-07-09T19:20:36.609Z,59.60
2017-07-09T19:23:08.937Z,59.97
2017-07-09T19:25:41.459Z,60.25
2017-07-09T19:28:13.856Z,60.90
2017-07-09T19:30:46.300Z,60.88
2017-07-09T19:33:18.531Z,61.21
2017-07-09T19:35:50.981Z,61.64
2017-07-09T19:38:24.218Z,61.66
2017-07-09T19:40:56.825Z,62.00
2017-07-09T19:43:28.989Z,62.61
2017-07-09T19:46:01.505Z,62.77
2017-07-09T19:48:33.945Z,62.90
2017-07-09T19:51:06.183Z,63.39
2017-07-09T19:53:38.721Z,63.75
2017-07-09T19:56:10.936Z,63.90
2017-07-09T19:58:43.305Z,64.08
2017-07-09T20:01:16.451Z,64.47
2017-07-09T20:03:49.081Z,64.48
2017-07-09T20:06:22.256Z,64.91
2017-07-09T20:08:54.843Z,65.22
2017-07-09T20:11:27.252Z,65.99
2017-07-09T20:13:59.673Z,66.35
2017-07-09T20:16:32.283Z,66.27
2017-07-09T20:19:04.638Z,66.26
2017-07-09T20:21:37.126Z,66.69
2017-07-09T20:24:10.869Z,67.20
2017-07-09T20:26:43.025Z,67.61
2017-07-09T20:29:15.396Z,67.31
2017-07-09T20:31:47.736Z,67.91
2017-07-09T20:34:20.125Z,68.09
2017-07-09T20:36:52.521Z,68.20
2017-07-09T20:39:24.933Z,68.05
2017-07-09T20:41:57.321Z,68.12
2017-07-09T20:44:29.594Z,68.42
2017-07-09T20:47:02.083Z,68.89
2017-07-09T20:49:34.541Z,69.15
2017-07-09T20:52:07.132Z,69.35
2017-07-09T20:54:39.630Z,69.39
2017-07-09T20:57:12.394Z,69.33
2017-07-09T20:59:44.464Z,70.16
2017-07-09T21:02:16.940Z,70.21
2017-07-09T21:04:50.620Z,70.45
2017-07-09T21:07:22.939Z,70.25
2017-07-09T21:09:55.401Z,70.53
2017-07-09T21:12:27.769Z,70.72
2017-07-09T21:15:00.133Z,71.22
2017-07-09T21:17:32.630Z,71.03
2017-07-09T21:20:05.044Z,71.12
2017-07-09T21:22:37.375Z,71.07
2017-07-09T21:25:10.910Z,71.61
2017-07-09T21:27:43.385Z,71.67
2017-07-09T21:30:16.081Z,71.46
2017-07-09T21:32:48.246Z,71.56
2017-07-09T21:35:20.581Z,72.25
2017-07-09T21:37:53.010Z,72.93
2017-07-09T21:40:25.338Z,74.00
2017-07-09T21:42:57.653Z,74.12
2017-07-09T21:45:30.012Z,74.27
2017-07-09T21:48:02.345Z,74.67
2017-07-09T21:50:34.933Z,75.30
2017-07-09T21:53:08.309Z,74.81
2017-07-09T21:55:40.882Z,74.29
2017-07-09T21:58:13.069Z,74.34
2017-07-09T22:00:45.466Z,74.34
2017-07-09T22:03:18.054Z,74.28
2017-07-09T22:05:50.936Z,73.86
2017-07-09T22:08:23.185Z,73.98
2017-07-09T22:10:55.594Z,73.89
2017-07-09T22:13:27.973Z,73.74
2017-07-09T22:16:01.144Z,74.08
2017-07-09T22:18:33.577Z,74.51
2017-07-09T22:21:05.979Z,74.89
2017-07-09T22:23:38.476Z,75.16
2017-07-09T22:26:10.944Z,75.66
2017-07-09T22:28:43.340Z,75.34
2017-07-09T22:31:15.734Z,75.54
2017-07-09T22:33:48.214Z,75.93
2017-07-09T22:36:20.605Z,76.31
2017-07-09T22:38:52.917Z,75.62
2017-07-09T22:41:25.256Z,75.77
2017-07-09T22:43:57.536Z,75.92
2017-07-09T22:46:29.790Z,75.58
2017-07-09T22:49:02.174Z,75.68
2017-07-09T22:51:34.557Z,76.50
2017-07-09T22:54:06.951Z,76.36
2017-07-09T22:56:39.422Z,76.66
2017-07-09T22:59:12.852Z,76.67
2017-07-09T23:01:45.109Z,77.08
2017-07-09T23:04:17.832Z,77.44
2017-07-09T23:06:49.868Z,77.54
2017-07-09T23:09:22.281Z,77.73
2017-07-09T23:11:54.726Z,77.97
2017-07-09T23:14:27.143Z,77.83
2017-07-09T23:16:59.395Z,77.89
2017-07-09T23:19:31.893Z,78.12
2017-07-09T23:22:04.339Z,78.52
2017-07-09T23:24:36.653Z,78.20
2017-07-09T23:27:09.011Z,77.78
2017-07-09T23:29:41.521Z,77.68
2017-07-09T23:32:13.847Z,78.44
2017-07-09T23:34:46.236Z,78.23
2017-07-09T23:37:18.678Z,79.47
2017-07-09T23:39:50.969Z,79.91
2017-07-09T23:42:30.110Z,79.17
2017-07-09T23:45:03.656Z,79.00
2017-07-09T23:47:36.044Z,79.31
2017-07-09T23:50:08.426Z,79.67
2017-07-09T23:52:40.750Z,80.13
2017-07-09T23:55:13.206Z,80.93
2017-07-09T23:57:45.553Z,79.97
